createdAt,value
2023-05-09T00:02:10.333Z,98.10
2023-05-09T00:04:38.799Z,98.40
2023-05-09T00:07:06.767Z,98.60
2023-05-09T00:09:37.388Z,98.90
2023-05-09T00:12:06.233Z,98.20
2023-05-09T00:14:33.965Z,98.00
2023-05-09T00:17:02.093Z,98.30
2023-05-09T00:19:30.354Z,98.50
2023-05-09T00:21:58.253Z,98.50
2023-05-09T00:24:26.071Z,98.50
2023-05-09T00:26:54.339Z,98.60
2023-05-09T00:29:22.090Z,98.70
2023-05-09T00:31:50.107Z,99.30
2023-05-09T00:34:18.314Z,99.70
2023-05-09T00:36:46.255Z,99.80
2023-05-09T00:39:15.069Z,99.90
2023-05-09T00:41:43.740Z,99.90
2023-05-09T00:44:11.601Z,99.70
2023-05-09T00:46:40.850Z,99.70
2023-05-09T00:49:08.837Z,99.80
2023-05-09T00:51:38.051Z,99.90
2023-05-09T00:54:08.478Z,99.90
2023-05-09T00:56:37.686Z,99.90
2023-05-09T00:59:06.874Z,99.90
2023-05-09T01:01:35.203Z,99.90
2023-05-09T01:04:06.508Z,99.90
2023-05-09T01:07:03.500Z,99.90
2023-05-09T01:10:05.470Z,99.90
2023-05-09T01:12:55.170Z,99.90
2023-05-09T01:16:07.013Z,99.90
2023-05-09T01:18:47.718Z,99.90
2023-05-09T01:21:24.501Z,99.90
2023-05-09T01:24:02.461Z,99.90
2023-05-09T01:27:07.553Z,99.90
2023-05-09T01:29:47.624Z,99.90
2023-05-09T01:32:23.483Z,99.90
2023-05-09T01:34:55.397Z,99.90
2023-05-09T01:37:45.429Z,99.90
2023-05-09T01:40:21.235Z,99.90
2023-05-09T01:43:03.075Z,99.90
2023-05-09T01:45:31.962Z,99.90
2023-05-09T01:48:01.331Z,99.90
2023-05-09T01:50:31.568Z,99.90
2023-05-09T01:53:02.231Z,99.90
2023-05-09T01:55:33.613Z,99.90
2023-05-09T01:58:03.847Z,99.90
2023-05-09T02:00:35.939Z,99.90
2023-05-09T02:03:05.329Z,99.90
2023-05-09T02:05:34.158Z,99.90
2023-05-09T02:08:02.602Z,99.90
2023-05-09T02:10:34.770Z,99.90
2023-05-09T02:13:03.449Z,99.90
2023-05-09T02:15:32.848Z,99.90
2023-05-09T02:18:01.238Z,99.90
2023-05-09T02:20:29.351Z,99.90
2023-05-09T02:22:57.987Z,99.90
2023-05-09T02:25:25.908Z,99.90
2023-05-09T02:27:56.315Z,99.90
2023-05-09T02:30:26.576Z,99.90
2023-05-09T02:33:00.387Z,99.90
2023-05-09T02:35:29.381Z,99.90
2023-05-09T02:38:01.175Z,99.90
2023-05-09T02:40:30.961Z,99.90
2023-05-09T02:42:59.230Z,99.90
2023-05-09T02:45:28.367Z,99.90
2023-05-09T02:47:57.086Z,99.90
2023-05-09T02:50:25.539Z,99.90
2023-05-09T02:52:53.832Z,99.90
2023-05-09T02:55:22.649Z,99.90
2023-05-09T02:57:56.333Z,99.90
2023-05-09T03:00:33.025Z,99.90
2023-05-09T03:03:01.771Z,99.90
2023-05-09T03:05:29.911Z,99.90
2023-05-09T03:07:58.063Z,99.90
2023-05-09T03:10:26.144Z,99.90
2023-05-09T03:12:54.287Z,99.90
2023-05-09T03:15:22.425Z,99.90
2023-05-09T03:17:50.551Z,99.90
2023-05-09T03:20:18.506Z,99.90
2023-05-09T03:22:46.566Z,99.90
2023-05-09T03:25:15.006Z,99.90
2023-05-09T03:27:43.324Z,99.90
2023-05-09T03:30:15.536Z,99.90
2023-05-09T03:32:45.760Z,99.90
2023-05-09T03:35:14.081Z,99.90
2023-05-09T03:37:42.288Z,99.90
2023-05-09T03:40:11.953Z,99.90
2023-05-09T03:42:48.586Z,99.90
2023-05-09T03:45:16.916Z,99.90
2023-05-09T03:47:47.150Z,99.90
2023-05-09T03:50:15.921Z,99.90
2023-05-09T03:52:45.157Z,99.90
2023-05-09T03:55:16.998Z,99.90
2023-05-09T03:57:45.026Z,99.90
2023-05-09T04:00:13.923Z,99.90
2023-05-09T04:02:43.177Z,99.90
2023-05-09T04:05:20.769Z,99.90
2023-05-09T04:07:49.057Z,99.90
2023-05-09T04:10:17.270Z,99.90
2023-05-09T04:12:47.269Z,99.90
2023-05-09T04:15:18.670Z,99.90
2023-05-09T04:17:47.910Z,99.90
2023-05-09T04:20:15.926Z,99.90
2023-05-09T04:22:46.792Z,99.90
2023-05-09T04:25:17.497Z,99.90
2023-05-09T04:27:46.813Z,99.90
2023-05-09T04:30:16.768Z,99.90
2023-05-09T04:32:46.810Z,99.90
2023-05-09T04:35:18.043Z,99.90
2023-05-09T04:37:49.465Z,99.90
2023-05-09T04:40:19.528Z,99.90
2023-05-09T04:42:57.921Z,99.90
2023-05-09T04:45:28.864Z,99.90
2023-05-09T04:47:59.739Z,99.90
2023-05-09T04:50:27.923Z,99.90
2023-05-09T04:52:55.856Z,99.90
2023-05-09T04:55:24.215Z,99.90
2023-05-09T04:57:52.669Z,99.90
2023-05-09T05:00:22.010Z,99.90
2023-05-09T05:02:50.981Z,99.90
2023-05-09T05:07:50.036Z,99.90
2023-05-09T05:10:22.228Z,99.90
2023-05-09T05:12:56.154Z,99.90
2023-05-09T05:15:24.638Z,99.90
2023-05-09T05:17:52.526Z,99.90
2023-05-09T05:20:23.774Z,99.90
2023-05-09T05:22:52.135Z,99.90
2023-05-09T05:25:22.933Z,99.90
2023-05-09T05:27:59.075Z,99.90
2023-05-09T05:30:27.595Z,99.90
2023-05-09T05:32:55.650Z,99.90
2023-05-09T05:35:25.405Z,99.90
2023-05-09T05:37:54.330Z,99.90
2023-05-09T05:40:24.107Z,99.90
2023-05-09T05:42:54.886Z,99.90
2023-05-09T05:45:24.372Z,99.90
2023-05-09T05:47:56.773Z,99.90
2023-05-09T05:50:25.634Z,99.90
2023-05-09T05:52:54.557Z,99.90
2023-05-09T05:55:23.583Z,99.90
2023-05-09T05:57:52.053Z,99.90
2023-05-09T06:00:21.316Z,99.90
2023-05-09T06:02:56.257Z,99.90
2023-05-09T06:05:29.846Z,99.90
2023-05-09T06:07:58.116Z,99.90
2023-05-09T06:10:26.173Z,99.90
2023-05-09T06:12:54.185Z,99.90
2023-05-09T06:15:23.670Z,99.90
2023-05-09T06:17:52.452Z,99.90
2023-05-09T06:20:20.329Z,99.90
2023-05-09T06:22:48.734Z,99.90
2023-05-09T06:25:16.981Z,99.90
2023-05-09T06:27:46.749Z,99.90
2023-05-09T06:30:25.582Z,99.90
2023-05-09T06:32:56.056Z,99.90
2023-05-09T06:35:24.053Z,99.90
2023-05-09T06:37:52.311Z,99.90
2023-05-09T06:40:20.601Z,99.90
2023-05-09T06:42:49.187Z,99.90
2023-05-09T06:45:17.851Z,99.90
2023-05-09T06:47:46.441Z,99.90
2023-05-09T06:50:14.577Z,99.90
2023-05-09T06:52:42.520Z,99.90
2023-05-09T06:55:11.466Z,99.90
2023-05-09T06:57:41.424Z,99.90
2023-05-09T07:00:09.991Z,99.90
2023-05-09T07:02:42.421Z,99.90
2023-05-09T07:05:11.184Z,99.90
2023-05-09T07:07:39.351Z,99.90
2023-05-09T07:10:11.805Z,99.90
2023-05-09T07:12:41.990Z,99.90
2023-05-09T07:15:10.558Z,99.90
2023-05-09T07:17:38.812Z,99.90
2023-05-09T07:20:07.549Z,99.90
2023-05-09T07:22:37.438Z,99.90
2023-05-09T07:25:08.468Z,99.90
2023-05-09T07:27:37.260Z,99.90
2023-05-09T07:30:06.497Z,99.90
2023-05-09T07:32:34.610Z,99.90
2023-05-09T07:35:03.783Z,99.90
2023-05-09T07:37:32.133Z,99.90
2023-05-09T07:40:00.816Z,99.90
2023-05-09T07:42:30.895Z,99.90
2023-05-09T07:44:59.621Z,99.90
2023-05-09T07:47:27.662Z,99.90
2023-05-09T07:49:55.967Z,99.90
2023-05-09T07:52:24.031Z,99.90
2023-05-09T07:54:52.030Z,99.90
2023-05-09T07:57:19.951Z,99.90
2023-05-09T07:59:48.188Z,99.90
2023-05-09T08:02:16.157Z,99.90
2023-05-09T08:04:44.464Z,99.90
2023-05-09T08:07:15.348Z,99.90
2023-05-09T08:09:43.309Z,99.90
2023-05-09T08:12:11.170Z,99.90
2023-05-09T08:14:39.165Z,99.90
2023-05-09T08:17:07.131Z,99.90
2023-05-09T08:19:35.417Z,99.90
2023-05-09T08:22:06.541Z,99.90
2023-05-09T08:24:34.969Z,99.90
2023-05-09T08:27:03.481Z,99.90
2023-05-09T08:29:31.636Z,99.90
2023-05-09T08:32:02.534Z,99.90
2023-05-09T08:34:34.758Z,99.90
2023-05-09T08:37:04.604Z,99.90
2023-05-09T08:39:35.650Z,99.90
2023-05-09T08:42:04.164Z,99.90
2023-05-09T08:44:32.650Z,99.90
2023-05-09T08:47:03.672Z,99.90
2023-05-09T08:49:32.079Z,99.90
2023-05-09T08:52:00.248Z,99.90
2023-05-09T08:54:29.453Z,99.90
2023-05-09T08:56:58.304Z,99.40
2023-05-09T08:59:28.596Z,98.60
2023-05-09T09:01:56.808Z,98.90
2023-05-09T09:04:24.619Z,98.20
2023-05-09T09:06:54.430Z,97.90
2023-05-09T09:09:23.326Z,97.50
2023-05-09T09:11:53.652Z,97.40
2023-05-09T09:14:28.105Z,97.20
2023-05-09T09:16:58.162Z,96.50
2023-05-09T09:19:30.646Z,96.50
2023-05-09T09:22:02.669Z,96.00
2023-05-09T09:24:31.968Z,95.10
2023-05-09T09:27:06.829Z,94.10
2023-05-09T09:29:35.380Z,93.80
2023-05-09T09:32:05.045Z,92.60
2023-05-09T09:34:33.414Z,92.30
2023-05-09T09:37:01.652Z,92.50
2023-05-09T09:39:29.826Z,92.80
2023-05-09T09:41:57.717Z,92.90
2023-05-09T09:44:26.350Z,92.80
2023-05-09T09:46:56.338Z,92.20
2023-05-09T09:49:26.736Z,92.90
2023-05-09T09:51:56.880Z,92.50
2023-05-09T09:54:28.183Z,93.00
2023-05-09T09:56:57.354Z,92.80
2023-05-09T09:59:27.107Z,92.10
2023-05-09T10:01:56.294Z,92.10
2023-05-09T10:04:25.290Z,92.10
2023-05-09T10:07:04.243Z,91.90
2023-05-09T10:09:33.643Z,92.30
2023-05-09T10:12:09.131Z,91.80
2023-05-09T10:14:39.129Z,91.60
2023-05-09T10:17:07.328Z,91.20
2023-05-09T10:19:38.638Z,91.30
2023-05-09T10:22:10.556Z,90.70
2023-05-09T10:24:52.129Z,90.60
2023-05-09T10:27:23.772Z,90.70
2023-05-09T10:30:10.853Z,90.60
2023-05-09T10:33:03.531Z,90.50
2023-05-09T10:35:37.311Z,89.70
2023-05-09T10:38:06.498Z,90.50
2023-05-09T10:40:35.408Z,90.50
2023-05-09T10:43:13.305Z,90.40
2023-05-09T10:45:42.648Z,90.90
2023-05-09T10:48:12.071Z,90.30
2023-05-09T10:50:41.335Z,91.30
2023-05-09T10:53:14.476Z,91.30
2023-05-09T10:55:52.278Z,91.40
2023-05-09T10:58:29.368Z,91.30
2023-05-09T11:00:59.322Z,91.10
2023-05-09T11:03:28.994Z,91.40
2023-05-09T11:05:59.077Z,91.20
2023-05-09T11:08:29.180Z,91.50
2023-05-09T11:11:00.921Z,92.10
2023-05-09T11:13:33.178Z,92.70
2023-05-09T11:16:04.133Z,92.80
2023-05-09T11:18:33.469Z,92.90
2023-05-09T11:21:10.017Z,93.40
2023-05-09T11:23:39.915Z,93.90
2023-05-09T11:26:09.625Z,93.30
2023-05-09T11:28:38.841Z,93.10
2023-05-09T11:31:15.646Z,93.20
2023-05-09T11:33:47.279Z,93.30
2023-05-09T11:36:20.847Z,92.80
2023-05-09T11:38:49.434Z,92.90
2023-05-09T11:41:17.743Z,93.40
2023-05-09T11:43:46.039Z,92.50
2023-05-09T11:46:21.112Z,92.40
2023-05-09T11:49:14.341Z,92.50
2023-05-09T11:51:42.946Z,92.00
2023-05-09T11:54:12.381Z,92.30
2023-05-09T11:56:42.563Z,92.40
2023-05-09T11:59:13.809Z,91.20
2023-05-09T12:01:41.945Z,90.90
2023-05-09T12:04:10.196Z,90.80
2023-05-09T12:06:38.481Z,90.50
2023-05-09T12:09:06.930Z,90.50
2023-05-09T12:11:37.273Z,90.30
2023-05-09T12:14:05.731Z,90.00
2023-05-09T12:16:33.837Z,88.30
2023-05-09T12:19:01.955Z,87.00
2023-05-09T12:21:29.942Z,86.50
2023-05-09T12:23:58.495Z,87.60
2023-05-09T12:26:27.725Z,86.40
2023-05-09T12:28:56.109Z,85.20
2023-05-09T12:31:24.279Z,84.90
2023-05-09T12:36:40.752Z,86.00
2023-05-09T12:39:10.859Z,85.90
2023-05-09T12:41:57.443Z,85.50
2023-05-09T12:44:30.264Z,84.70
2023-05-09T12:47:03.776Z,85.00
2023-05-09T12:49:33.042Z,86.00
2023-05-09T12:52:04.740Z,84.80
2023-05-09T12:54:33.301Z,86.10
2023-05-09T12:57:01.625Z,86.40
2023-05-09T12:59:30.974Z,86.90
2023-05-09T13:02:00.716Z,87.80
2023-05-09T13:04:29.560Z,88.00
2023-05-09T13:07:00.416Z,88.30
2023-05-09T13:09:28.796Z,87.90
2023-05-09T13:11:56.600Z,87.90
2023-05-09T13:14:24.877Z,88.20
2023-05-09T13:16:52.932Z,88.90
2023-05-09T13:19:21.186Z,90.00
2023-05-09T13:21:49.074Z,90.30
2023-05-09T13:24:17.273Z,90.60
2023-05-09T13:26:45.140Z,90.90
2023-05-09T13:29:13.320Z,91.30
2023-05-09T13:31:41.561Z,91.50
2023-05-09T13:34:10.865Z,91.20
2023-05-09T13:36:39.061Z,91.00
2023-05-09T13:39:07.193Z,90.90
2023-05-09T13:41:37.508Z,90.90
2023-05-09T13:44:06.846Z,91.30
2023-05-09T13:46:36.135Z,91.20
2023-05-09T13:49:04.961Z,91.20
2023-05-09T13:51:33.263Z,91.20
2023-05-09T13:54:01.468Z,91.00
2023-05-09T13:56:29.607Z,91.00
2023-05-09T13:58:57.946Z,91.00
2023-05-09T14:01:25.855Z,90.80
2023-05-09T14:03:54.543Z,90.80
2023-05-09T14:06:22.730Z,90.70
2023-05-09T14:08:51.959Z,91.20
2023-05-09T14:11:20.642Z,91.10
2023-05-09T14:13:48.778Z,91.10
2023-05-09T14:16:16.961Z,91.00
2023-05-09T14:18:44.941Z,90.80
2023-05-09T14:21:12.977Z,90.40
2023-05-09T14:23:42.089Z,90.50
2023-05-09T14:26:09.794Z,90.60
2023-05-09T14:28:38.904Z,90.20
2023-05-09T14:31:07.225Z,90.20
2023-05-09T14:33:36.525Z,90.60
2023-05-09T14:36:06.618Z,90.60
2023-05-09T14:38:34.802Z,90.80
2023-05-09T14:41:03.237Z,90.40
2023-05-09T14:43:31.658Z,90.20
2023-05-09T14:45:59.995Z,90.40
2023-05-09T14:48:28.419Z,90.30
2023-05-09T14:50:57.832Z,90.50
2023-05-09T14:53:26.199Z,90.20
2023-05-09T14:55:54.072Z,90.50
2023-05-09T14:58:23.457Z,90.40
2023-05-09T15:00:53.552Z,90.50
2023-05-09T15:03:22.158Z,90.60
2023-05-09T15:05:51.261Z,90.50
2023-05-09T15:08:19.358Z,90.60
2023-05-09T15:10:48.540Z,90.40
2023-05-09T15:13:16.787Z,89.90
2023-05-09T15:15:44.831Z,89.80
2023-05-09T15:18:13.697Z,89.70
2023-05-09T15:20:42.204Z,89.20
2023-05-09T15:23:10.629Z,89.40
2023-05-09T15:25:41.124Z,89.40
2023-05-09T15:28:09.307Z,90.00
2023-05-09T15:30:39.189Z,90.00
2023-05-09T15:33:07.980Z,89.90
2023-05-09T15:35:36.371Z,89.90
2023-05-09T15:38:04.631Z,89.70
2023-05-09T15:40:32.563Z,88.90
2023-05-09T15:43:00.743Z,89.30
2023-05-09T15:45:39.617Z,89.90
2023-05-09T15:48:07.938Z,90.10
2023-05-09T15:50:36.026Z,89.80
2023-05-09T15:53:04.713Z,89.80
2023-05-09T15:55:33.226Z,89.70
2023-05-09T15:58:01.239Z,89.20
2023-05-09T16:00:30.284Z,89.50
2023-05-09T16:02:59.275Z,89.60
2023-05-09T16:05:27.527Z,89.70
2023-05-09T16:07:55.711Z,89.90
2023-05-09T16:10:23.813Z,90.00
2023-05-09T16:12:52.021Z,89.60
2023-05-09T16:15:19.912Z,89.70
2023-05-09T16:17:48.358Z,88.90
2023-05-09T16:20:16.460Z,88.90
2023-05-09T16:22:44.808Z,88.70
2023-05-09T16:25:13.207Z,88.10
2023-05-09T16:27:52.425Z,88.80
2023-05-09T16:30:28.613Z,88.80
2023-05-09T16:32:57.488Z,88.80
2023-05-09T16:35:26.268Z,88.70
2023-05-09T16:37:57.705Z,88.20
2023-05-09T16:40:26.029Z,88.20
2023-05-09T16:42:54.251Z,88.40
2023-05-09T16:45:22.210Z,88.80
2023-05-09T16:47:51.548Z,89.20
2023-05-09T16:50:19.618Z,89.50
2023-05-09T16:52:47.491Z,89.40
2023-05-09T16:55:15.630Z,89.40
2023-05-09T16:57:43.614Z,89.20
2023-05-09T17:00:12.567Z,89.40
2023-05-09T17:02:41.022Z,89.40
2023-05-09T17:05:12.292Z,89.30
2023-05-09T17:07:43.887Z,89.40
2023-05-09T17:10:12.278Z,89.80
2023-05-09T17:12:40.057Z,89.60
2023-05-09T17:15:09.096Z,89.10
2023-05-09T17:17:36.975Z,89.20
2023-05-09T17:20:05.702Z,88.50
2023-05-09T17:22:37.079Z,89.00
2023-05-09T17:25:06.880Z,89.30
2023-05-09T17:27:34.887Z,90.10
2023-05-09T17:30:06.560Z,90.00
2023-05-09T17:32:34.891Z,90.00
2023-05-09T17:35:03.139Z,90.10
2023-05-09T17:37:31.938Z,90.20
2023-05-09T17:39:59.863Z,90.40
2023-05-09T17:42:27.823Z,90.40
2023-05-09T17:44:55.774Z,90.40
2023-05-09T17:47:24.551Z,90.40
2023-05-09T17:49:52.658Z,90.60
2023-05-09T17:52:22.663Z,90.40
2023-05-09T17:54:50.887Z,90.50
2023-05-09T17:57:19.072Z,90.70
2023-05-09T17:59:48.128Z,90.80
2023-05-09T18:02:17.289Z,90.90
2023-05-09T18:04:46.713Z,90.90
2023-05-09T18:07:14.771Z,91.00
2023-05-09T18:09:43.852Z,91.20
2023-05-09T18:12:11.951Z,91.30
2023-05-09T18:14:40.597Z,91.50
2023-05-09T18:17:11.635Z,91.70
2023-05-09T18:19:44.666Z,91.80
2023-05-09T18:22:19.061Z,91.90
2023-05-09T18:24:47.279Z,91.70
2023-05-09T18:27:15.748Z,91.80
2023-05-09T18:29:46.115Z,91.90
2023-05-09T18:32:14.877Z,92.00
2023-05-09T18:34:44.586Z,92.20
2023-05-09T18:37:13.257Z,92.30
2023-05-09T18:39:41.354Z,92.30
2023-05-09T18:42:09.957Z,92.40
2023-05-09T18:44:38.007Z,92.40
2023-05-09T18:47:06.265Z,92.40
2023-05-09T18:49:34.161Z,92.50
2023-05-09T18:52:04.953Z,92.40
2023-05-09T18:54:33.176Z,92.50
2023-05-09T18:57:01.069Z,92.40
2023-05-09T18:59:29.354Z,92.30
2023-05-09T19:01:57.371Z,92.00
2023-05-09T19:04:25.751Z,91.80
2023-05-09T19:06:53.896Z,91.90
2023-05-09T19:09:22.104Z,91.70
2023-05-09T19:11:50.007Z,91.70
2023-05-09T19:14:18.354Z,91.90
2023-05-09T19:16:48.412Z,92.00
2023-05-09T19:19:17.679Z,92.20
2023-05-09T19:21:51.896Z,92.40
2023-05-09T19:24:20.005Z,92.50
2023-05-09T19:26:49.995Z,92.50
2023-05-09T19:29:18.171Z,93.30
2023-05-09T19:31:46.575Z,94.00
2023-05-09T19:34:16.104Z,94.40
2023-05-09T19:36:44.948Z,95.40
2023-05-09T19:39:15.109Z,96.20
2023-05-09T19:41:43.158Z,96.60
2023-05-09T19:44:16.422Z,97.90
2023-05-09T19:46:47.736Z,98.10
2023-05-09T19:49:18.226Z,98.60
2023-05-09T19:51:46.766Z,98.80
2023-05-09T19:54:16.274Z,99.50
2023-05-09T19:56:48.927Z,99.90
2023-05-09T19:59:18.876Z,99.90
2023-05-09T20:01:47.594Z,99.90
2023-05-09T20:04:20.163Z,99.90
2023-05-09T20:06:49.272Z,99.90
2023-05-09T20:09:22.752Z,99.90
2023-05-09T20:11:52.211Z,99.90
2023-05-09T20:14:27.587Z,99.90
2023-05-09T20:17:01.118Z,99.90
2023-05-09T20:19:30.873Z,99.90
2023-05-09T20:22:01.367Z,99.90
2023-05-09T20:24:31.784Z,99.90
2023-05-09T20:27:02.846Z,99.90
2023-05-09T20:29:33.634Z,99.90
2023-05-09T20:32:03.314Z,99.90
2023-05-09T20:34:34.116Z,99.90
2023-05-09T20:37:02.947Z,99.90
2023-05-09T20:39:31.621Z,99.90
2023-05-09T20:42:05.060Z,99.90
2023-05-09T20:44:33.215Z,99.90
2023-05-09T20:47:02.584Z,99.90
2023-05-09T20:49:31.213Z,99.90
2023-05-09T20:51:58.964Z,99.90
2023-05-09T20:54:29.144Z,99.90
2023-05-09T20:56:57.337Z,99.90
2023-05-09T20:59:25.619Z,99.90
2023-05-09T21:01:56.172Z,99.90
2023-05-09T21:04:24.490Z,99.90
2023-05-09T21:06:53.688Z,99.90
2023-05-09T21:09:21.880Z,99.80
2023-05-09T21:11:50.143Z,99.70
2023-05-09T21:14:18.089Z,99.70
2023-05-09T21:16:49.100Z,99.50
2023-05-09T21:19:17.154Z,99.20
2023-05-09T21:21:46.899Z,98.90
2023-05-09T21:24:15.000Z,98.70
2023-05-09T21:26:43.112Z,98.70
2023-05-09T21:29:11.304Z,98.70
2023-05-09T21:31:39.332Z,98.60
2023-05-09T21:34:10.705Z,98.50
2023-05-09T21:36:40.324Z,98.50
2023-05-09T21:39:09.955Z,98.40
2023-05-09T21:41:40.046Z,98.00
2023-05-09T21:44:08.181Z,97.70
2023-05-09T21:46:36.520Z,97.70
2023-05-09T21:49:05.629Z,97.70
2023-05-09T21:51:34.797Z,97.80
2023-05-09T21:54:02.928Z,97.80
2023-05-09T21:56:30.998Z,98.00
2023-05-09T21:58:59.208Z,97.90
2023-05-09T22:01:27.045Z,97.90
2023-05-09T22:03:55.187Z,98.10
2023-05-09T22:06:23.079Z,98.10
2023-05-09T22:08:51.551Z,97.90
2023-05-09T22:11:19.589Z,97.70
2023-05-09T22:13:47.786Z,97.60
2023-05-09T22:16:15.713Z,97.60
2023-05-09T22:18:44.016Z,97.40
2023-05-09T22:21:11.888Z,97.30
2023-05-09T22:23:39.966Z,97.30
2023-05-09T22:26:07.877Z,96.90
2023-05-09T22:28:37.010Z,96.60
2023-05-09T22:31:08.252Z,96.60
2023-05-09T22:33:36.368Z,97.00
2023-05-09T22:36:05.481Z,97.40
2023-05-09T22:38:33.731Z,97.60
2023-05-09T22:41:01.644Z,97.50
2023-05-09T22:43:38.768Z,97.50
2023-05-09T22:46:08.363Z,97.50
2023-05-09T22:48:36.226Z,97.60
2023-05-09T22:51:07.023Z,97.70
2023-05-09T22:53:35.216Z,97.80
2023-05-09T22:56:03.333Z,97.90
2023-05-09T22:58:31.292Z,97.70
2023-05-09T23:00:59.413Z,97.70
2023-05-09T23:03:27.850Z,97.60
2023-05-09T23:05:55.811Z,97.60
2023-05-09T23:08:23.914Z,97.50
2023-05-09T23:10:52.076Z,97.50
2023-05-09T23:13:20.059Z,97.50
2023-05-09T23:15:48.940Z,97.50
2023-05-09T23:18:17.225Z,97.50
2023-05-09T23:20:46.241Z,97.50
2023-05-09T23:23:17.330Z,97.40
2023-05-09T23:25:45.401Z,97.50
2023-05-09T23:28:13.254Z,97.70
2023-05-09T23:30:41.406Z,97.70
2023-05-09T23:33:09.196Z,97.60
2023-05-09T23:35:37.883Z,97.60
2023-05-09T23:38:05.924Z,97.60
2023-05-09T23:40:33.998Z,97.60
2023-05-09T23:43:02.009Z,97.50
2023-05-09T23:45:29.902Z,97.50
2023-05-09T23:47:57.763Z,97.50
2023-05-09T23:50:26.207Z,97.60
2023-05-09T23:52:53.967Z,97.60
2023-05-09T23:55:24.909Z,97.60
2023-05-09T23:57:52.788Z,97.60
